Terminal Aerodrome Forecast
Issued by NWS Melbourne, FL

Current Version | Previous Version | Text Only | Print | Product List | Glossary On
Versions: 1 2 3 4 5 6 7 8 9 10 11 12 13 14 15 16 17 18 19 20 21
000
FTUS42 KMLB 192300
TAFDAB
TAF
KDAB 192340Z 2000/2024 28010KT P6SM SCT020 BKN040
     FM200300 31010KT P6SM SCT015 BKN020
      TEMPO 2010/2013 BKN008 OVC015
     FM201800 34015KT P6SM SCT025 BKN040=

USA.gov is the U.S. government's official web portal to all federal, state and local government web resources and services.